createdAt,value
2023-03-26T00:01:45.806Z,98715.02
2023-03-26T00:04:14.520Z,98714.59
2023-03-26T00:06:43.629Z,98710.52
2023-03-26T00:09:12.954Z,98708.33
2023-03-26T00:11:42.221Z,98704.43
2023-03-26T00:14:13.067Z,98705.77
2023-03-26T00:16:42.058Z,98703.23
2023-03-26T00:19:12.007Z,98701.76
2023-03-26T00:21:41.141Z,98704.08
2023-03-26T00:24:14.357Z,98702.73
2023-03-26T00:26:43.998Z,98698.96
2023-03-26T00:29:13.209Z,98699.07
2023-03-26T00:31:45.515Z,98700.52
2023-03-26T00:34:17.580Z,98701.94
2023-03-26T00:36:46.616Z,98702.08
2023-03-26T00:39:17.083Z,98697.58
2023-03-26T00:41:45.845Z,98700.95
2023-03-26T00:44:14.563Z,98707.13
2023-03-26T00:46:43.385Z,98704.45
2023-03-26T00:49:14.098Z,98703.30
2023-03-26T00:51:43.195Z,98702.84
2023-03-26T00:54:12.825Z,98700.72
2023-03-26T00:56:41.651Z,98696.17
2023-03-26T00:59:10.612Z,98689.85
2023-03-26T01:01:39.423Z,98689.05
2023-03-26T01:04:29.725Z,98685.28
2023-03-26T01:07:01.170Z,98687.48
2023-03-26T01:09:34.882Z,98684.23
2023-03-26T01:12:06.961Z,98684.04
2023-03-26T01:14:34.947Z,98682.42
2023-03-26T01:17:06.642Z,98679.00
2023-03-26T01:19:44.091Z,98678.06
2023-03-26T01:22:16.233Z,98677.38
2023-03-26T01:24:45.599Z,98675.34
2023-03-26T01:27:26.113Z,98678.14
2023-03-26T01:29:58.357Z,98678.61
2023-03-26T01:32:40.410Z,98678.88
2023-03-26T01:35:18.928Z,98676.22
2023-03-26T01:38:01.473Z,98673.95
2023-03-26T01:40:37.981Z,98670.21
2023-03-26T01:43:12.722Z,98663.53
2023-03-26T01:45:45.350Z,98665.55
2023-03-26T01:48:14.281Z,98667.91
2023-03-26T01:50:43.023Z,98669.34
2023-03-26T01:53:13.420Z,98663.33
2023-03-26T01:55:55.504Z,98659.61
2023-03-26T01:58:31.345Z,98664.70
2023-03-26T02:01:13.704Z,98663.45
2023-03-26T02:03:44.918Z,98663.51
2023-03-26T02:06:20.755Z,98665.47
2023-03-26T02:08:54.116Z,98667.95
2023-03-26T02:11:23.418Z,98665.10
2023-03-26T02:13:52.987Z,98664.85
2023-03-26T02:16:22.212Z,98663.36
2023-03-26T02:18:55.232Z,98662.92
2023-03-26T02:21:25.503Z,98666.38
2023-03-26T02:24:02.024Z,98659.59
2023-03-26T02:26:34.101Z,98663.73
2023-03-26T02:29:13.428Z,98663.94
2023-03-26T02:31:43.703Z,98664.11
2023-03-26T02:34:12.520Z,98663.66
2023-03-26T02:36:42.627Z,98664.48
2023-03-26T02:39:13.731Z,98662.80
2023-03-26T02:41:43.746Z,98661.72
2023-03-26T02:44:13.782Z,98658.50
2023-03-26T02:47:00.828Z,98655.23
2023-03-26T02:49:48.021Z,98662.27
2023-03-26T02:52:37.426Z,98661.79
2023-03-26T02:55:07.192Z,98660.22
2023-03-26T02:57:36.509Z,98663.07
2023-03-26T03:00:22.065Z,98664.70
2023-03-26T03:02:57.685Z,98662.14
2023-03-26T03:05:33.628Z,98661.19
2023-03-26T03:08:26.087Z,98661.21
2023-03-26T03:11:21.498Z,98660.73
2023-03-26T03:13:52.269Z,98656.97
2023-03-26T03:16:25.773Z,98655.17
2023-03-26T03:18:57.299Z,98651.61
2023-03-26T03:21:29.061Z,98649.38
2023-03-26T03:24:00.037Z,98650.58
2023-03-26T03:26:30.162Z,98654.19
2023-03-26T03:29:00.651Z,98651.60
2023-03-26T03:31:29.494Z,98652.06
2023-03-26T03:34:02.581Z,98651.64
2023-03-26T03:36:33.013Z,98652.11
2023-03-26T03:39:07.070Z,98652.92
2023-03-26T03:41:36.215Z,98653.02
2023-03-26T03:44:06.255Z,98656.09
2023-03-26T03:46:36.030Z,98652.73
2023-03-26T03:49:04.804Z,98657.33
2023-03-26T03:51:37.296Z,98654.70
2023-03-26T03:54:17.437Z,98658.27
2023-03-26T03:56:48.908Z,98654.95
2023-03-26T03:59:53.016Z,98656.30
2023-03-26T04:02:29.631Z,98656.73
2023-03-26T04:05:00.827Z,98662.16
2023-03-26T04:07:31.682Z,98657.38
2023-03-26T04:10:09.542Z,98662.09
2023-03-26T04:12:58.236Z,98662.70
2023-03-26T04:15:43.543Z,98665.52
2023-03-26T04:18:12.376Z,98665.23
2023-03-26T04:20:45.856Z,98668.75
2023-03-26T04:23:18.421Z,98664.73
2023-03-26T04:25:53.132Z,98662.94
2023-03-26T04:28:29.828Z,98663.42
2023-03-26T04:31:23.431Z,98663.83
2023-03-26T04:33:54.626Z,98671.53
2023-03-26T04:36:28.310Z,98670.83
2023-03-26T04:39:01.803Z,98670.59
2023-03-26T04:41:49.089Z,98661.55
2023-03-26T04:44:21.941Z,98658.35
2023-03-26T04:46:56.390Z,98667.63
2023-03-26T04:49:30.892Z,98667.73
2023-03-26T04:51:59.829Z,98668.12
2023-03-26T04:54:51.719Z,98667.75
2023-03-26T04:57:25.388Z,98672.61
2023-03-26T05:00:00.177Z,98672.95
2023-03-26T05:02:33.522Z,98676.65
2023-03-26T05:05:05.815Z,98673.12
2023-03-26T05:07:35.179Z,98671.59
2023-03-26T05:10:05.209Z,98669.78
2023-03-26T05:13:06.039Z,98668.86
2023-03-26T05:15:41.986Z,98667.06
2023-03-26T05:18:10.653Z,98666.55
2023-03-26T05:20:48.749Z,98671.83
2023-03-26T05:23:17.447Z,98671.27
2023-03-26T05:25:57.009Z,98673.64
2023-03-26T05:28:48.514Z,98671.48
2023-03-26T05:31:34.447Z,98673.12
2023-03-26T05:34:17.022Z,98670.69
2023-03-26T05:37:01.226Z,98665.95
2023-03-26T05:40:00.051Z,98665.40
2023-03-26T05:42:46.952Z,98664.68
2023-03-26T05:45:49.273Z,98665.36
2023-03-26T05:48:33.366Z,98666.48
2023-03-26T05:54:00.030Z,98669.98
2023-03-26T05:56:57.866Z,98673.41
2023-03-26T05:59:47.276Z,98672.39
2023-03-26T06:02:42.462Z,98675.93
2023-03-26T06:05:33.577Z,98677.30
2023-03-26T06:08:12.152Z,98677.77
2023-03-26T06:10:40.790Z,98680.76
2023-03-26T06:13:09.966Z,98682.38
2023-03-26T06:15:40.676Z,98685.91
2023-03-26T06:18:20.013Z,98692.31
2023-03-26T06:21:01.373Z,98693.15
2023-03-26T06:23:41.325Z,98698.08
2023-03-26T06:26:37.298Z,98698.44
2023-03-26T06:29:26.708Z,98694.73
2023-03-26T06:32:36.777Z,98692.16
2023-03-26T06:35:12.364Z,98692.27
2023-03-26T06:37:56.671Z,98692.77
2023-03-26T06:40:29.448Z,98694.52
2023-03-26T06:43:15.724Z,98690.67
2023-03-26T06:45:58.895Z,98683.92
2023-03-26T06:48:42.353Z,98681.08
2023-03-26T06:51:20.383Z,98679.84
2023-03-26T06:54:08.452Z,98683.17
2023-03-26T06:57:05.869Z,98682.62
2023-03-26T06:59:57.862Z,98684.67
2023-03-26T07:03:03.742Z,98678.29
2023-03-26T07:05:53.443Z,98677.73
2023-03-26T07:08:41.941Z,98676.73
2023-03-26T07:11:34.020Z,98678.63
2023-03-26T07:14:27.340Z,98685.42
2023-03-26T07:17:09.579Z,98682.96
2023-03-26T07:19:53.832Z,98683.36
2023-03-26T07:22:29.186Z,98676.30
2023-03-26T07:25:10.335Z,98681.61
2023-03-26T07:28:04.968Z,98679.89
2023-03-26T07:31:00.061Z,98680.34
2023-03-26T07:33:49.265Z,98683.20
2023-03-26T07:36:57.117Z,98683.58
2023-03-26T07:39:44.242Z,98684.93
2023-03-26T07:42:34.430Z,98681.28
2023-03-26T07:45:25.803Z,98684.69
2023-03-26T07:48:17.073Z,98681.19
2023-03-26T07:51:11.169Z,98684.78
2023-03-26T07:54:27.743Z,98676.68
2023-03-26T07:57:34.620Z,98674.14
2023-03-26T08:00:44.396Z,98671.27
2023-03-26T08:03:34.682Z,98671.73
2023-03-26T08:06:32.432Z,98671.84
2023-03-26T08:09:20.020Z,98673.96
2023-03-26T08:12:24.564Z,98672.96
2023-03-26T08:15:12.019Z,98671.95
2023-03-26T08:17:57.316Z,98670.89
2023-03-26T08:20:42.912Z,98670.57
2023-03-26T08:23:27.065Z,98676.11
2023-03-26T08:26:19.626Z,98672.59
2023-03-26T08:29:18.098Z,98674.15
2023-03-26T08:31:53.851Z,98668.46
2023-03-26T08:34:47.500Z,98666.02
2023-03-26T08:37:21.060Z,98658.98
2023-03-26T08:39:54.036Z,98658.65
2023-03-26T08:43:01.682Z,98657.55
2023-03-26T08:45:53.125Z,98656.51
2023-03-26T08:49:03.661Z,98649.39
2023-03-26T08:52:09.626Z,98648.92
2023-03-26T08:54:56.860Z,98644.42
2023-03-26T08:57:56.088Z,98644.17
2023-03-26T09:00:53.427Z,98645.11
2023-03-26T09:03:38.177Z,98643.00
2023-03-26T09:06:29.097Z,98631.62
2023-03-26T09:09:31.351Z,98634.16
2023-03-26T09:12:23.780Z,98632.82
2023-03-26T09:15:23.478Z,98632.27
2023-03-26T09:18:25.072Z,98630.57
2023-03-26T09:21:27.370Z,98633.05
2023-03-26T09:24:32.426Z,98629.51
2023-03-26T09:27:16.026Z,98625.39
2023-03-26T09:30:10.897Z,98625.92
2023-03-26T09:33:17.926Z,98631.45
2023-03-26T09:36:02.141Z,98631.59
2023-03-26T09:38:43.042Z,98629.41
2023-03-26T09:41:18.284Z,98627.02
2023-03-26T09:44:08.205Z,98623.89
2023-03-26T09:46:46.700Z,98617.63
2023-03-26T09:49:44.952Z,98616.77
2023-03-26T09:52:35.505Z,98615.13
2023-03-26T09:55:39.288Z,98616.90
2023-03-26T09:58:29.884Z,98615.53
2023-03-26T10:01:10.561Z,98616.21
2023-03-26T10:03:56.326Z,98617.42
2023-03-26T10:06:40.235Z,98611.27
2023-03-26T10:09:25.097Z,98610.55
2023-03-26T10:12:18.595Z,98606.86
2023-03-26T10:14:59.445Z,98611.84
2023-03-26T10:17:38.514Z,98609.98
2023-03-26T10:20:27.047Z,98610.55
2023-03-26T10:23:09.156Z,98609.41
2023-03-26T10:25:44.363Z,98608.23
2023-03-26T10:28:32.006Z,98610.06
2023-03-26T10:31:23.964Z,98604.60
2023-03-26T10:34:02.640Z,98611.55
2023-03-26T10:36:34.460Z,98608.44
2023-03-26T10:39:37.622Z,98605.73
2023-03-26T10:42:21.022Z,98606.40
2023-03-26T10:45:00.313Z,98601.75
2023-03-26T10:48:10.240Z,98602.13
2023-03-26T10:51:04.338Z,98591.23
2023-03-26T10:53:39.230Z,98592.50
2023-03-26T10:56:18.016Z,98589.31
2023-03-26T10:58:49.345Z,98588.31
2023-03-26T11:01:23.892Z,98576.65
2023-03-26T11:03:55.090Z,98569.95
2023-03-26T11:06:36.078Z,98573.16
2023-03-26T11:09:16.402Z,98575.58
2023-03-26T11:11:53.491Z,98577.92
2023-03-26T11:14:34.739Z,98580.18
2023-03-26T11:17:40.734Z,98571.36
2023-03-26T11:20:16.593Z,98571.79
2023-03-26T11:22:59.015Z,98567.13
2023-03-26T11:25:37.804Z,98565.13
2023-03-26T11:28:22.905Z,98566.02
2023-03-26T11:31:08.294Z,98562.12
2023-03-26T11:33:46.073Z,98558.66
2023-03-26T11:36:21.717Z,98553.49
2023-03-26T11:39:03.648Z,98552.41
2023-03-26T11:41:35.088Z,98553.31
2023-03-26T11:44:18.990Z,98551.87
2023-03-26T11:46:52.148Z,98547.67
2023-03-26T11:49:23.558Z,98537.61
2023-03-26T11:51:58.929Z,98544.09
2023-03-26T11:54:28.443Z,98539.55
2023-03-26T11:57:04.524Z,98539.61
2023-03-26T11:59:55.647Z,98535.84
2023-03-26T12:02:29.332Z,98526.41
2023-03-26T12:05:18.881Z,98528.16
2023-03-26T12:08:01.865Z,98529.25
2023-03-26T12:10:38.540Z,98524.56
2023-03-26T12:13:33.450Z,98517.20
2023-03-26T12:16:12.451Z,98517.63
2023-03-26T12:18:43.296Z,98511.52
2023-03-26T12:21:21.334Z,98511.48
2023-03-26T12:24:01.308Z,98510.91
2023-03-26T12:26:48.115Z,98512.56
2023-03-26T12:29:19.818Z,98510.08
2023-03-26T12:31:56.903Z,98511.36
2023-03-26T12:34:34.432Z,98503.51
2023-03-26T12:37:04.939Z,98500.68
2023-03-26T12:40:10.094Z,98495.13
2023-03-26T12:44:51.245Z,98494.42
2023-03-26T12:47:54.230Z,98490.58
2023-03-26T12:48:38.388Z,98486.97
2023-03-26T12:51:17.530Z,98484.39
2023-03-26T12:54:01.480Z,98479.44
2023-03-26T12:56:38.754Z,98476.19
2023-03-26T12:59:29.587Z,98469.90
2023-03-26T13:02:06.653Z,98463.80
2023-03-26T13:05:05.134Z,98465.11
2023-03-26T13:07:52.071Z,98461.38
2023-03-26T13:10:49.277Z,98458.34
2023-03-26T13:13:36.798Z,98458.96
2023-03-26T13:16:14.443Z,98453.43
2023-03-26T13:18:50.701Z,98449.50
2023-03-26T13:21:39.226Z,98446.44
2023-03-26T13:24:23.107Z,98443.05
2023-03-26T13:27:04.643Z,98443.52
2023-03-26T13:29:46.235Z,98445.77
2023-03-26T13:32:24.825Z,98446.02
2023-03-26T13:35:07.759Z,98445.22
2023-03-26T13:37:45.340Z,98442.61
2023-03-26T13:40:24.859Z,98446.06
2023-03-26T13:43:19.050Z,98443.52
2023-03-26T13:45:56.380Z,98436.16
2023-03-26T13:48:30.049Z,98441.44
2023-03-26T13:51:06.645Z,98438.52
2023-03-26T13:53:43.479Z,98439.10
2023-03-26T13:56:16.198Z,98437.35
2023-03-26T13:58:50.017Z,98441.88
2023-03-26T14:01:44.201Z,98438.86
2023-03-26T14:04:31.945Z,98433.01
2023-03-26T14:07:15.091Z,98434.85
2023-03-26T14:09:54.581Z,98436.31
2023-03-26T14:12:49.599Z,98437.52
2023-03-26T14:15:26.558Z,98434.87
2023-03-26T14:18:03.096Z,98428.73
2023-03-26T14:21:02.912Z,98432.80
2023-03-26T14:24:02.559Z,98430.59
2023-03-26T14:26:50.072Z,98425.49
2023-03-26T14:29:57.080Z,98423.10
2023-03-26T14:32:42.492Z,98417.23
2023-03-26T14:35:32.967Z,98415.62
2023-03-26T14:38:32.304Z,98413.13
2023-03-26T14:41:11.640Z,98413.59
2023-03-26T14:44:19.295Z,98413.48
2023-03-26T14:47:05.559Z,98415.69
2023-03-26T14:50:15.138Z,98408.29
2023-03-26T14:52:48.556Z,98408.48
2023-03-26T14:55:37.741Z,98407.48
2023-03-26T14:58:37.041Z,98405.64
2023-03-26T15:01:25.321Z,98400.49
2023-03-26T15:04:42.980Z,98396.18
2023-03-26T15:07:40.520Z,98391.02
2023-03-26T15:10:56.158Z,98387.39
2023-03-26T15:13:49.518Z,98387.42
2023-03-26T15:16:38.984Z,98388.23
2023-03-26T15:19:54.594Z,98384.27
2023-03-26T15:22:47.863Z,98384.95
2023-03-26T15:25:51.113Z,98381.50
2023-03-26T15:28:52.221Z,98376.70
2023-03-26T15:31:49.740Z,98373.68
2023-03-26T15:34:55.016Z,98372.42
2023-03-26T15:38:08.594Z,98370.65
2023-03-26T15:41:04.509Z,98369.48
2023-03-26T15:44:24.098Z,98364.73
2023-03-26T15:47:27.142Z,98359.42
2023-03-26T15:50:16.716Z,98355.61
2023-03-26T15:52:57.755Z,98349.63
2023-03-26T15:55:35.968Z,98348.96
2023-03-26T15:58:15.468Z,98351.30
2023-03-26T16:00:54.938Z,98348.75
2023-03-26T16:03:33.975Z,98348.20
2023-03-26T16:06:27.605Z,98348.11
2023-03-26T16:09:09.051Z,98346.18
2023-03-26T16:11:55.961Z,98348.41
2023-03-26T16:14:42.008Z,98345.54
2023-03-26T16:17:17.263Z,98341.69
2023-03-26T16:19:54.797Z,98340.73
2023-03-26T16:22:44.827Z,98339.72
2023-03-26T16:25:28.864Z,98341.40
2023-03-26T16:28:28.431Z,98337.72
2023-03-26T16:31:38.268Z,98334.23
2023-03-26T16:34:26.549Z,98337.35
2023-03-26T16:36:58.445Z,98337.40
2023-03-26T16:39:40.191Z,98337.48
2023-03-26T16:42:34.714Z,98341.63
2023-03-26T16:45:17.493Z,98339.99
2023-03-26T16:47:58.001Z,98338.96
2023-03-26T16:50:33.338Z,98336.73
2023-03-26T16:53:13.227Z,98336.66
2023-03-26T16:55:47.297Z,98334.30
2023-03-26T16:58:29.537Z,98335.14
2023-03-26T17:01:10.509Z,98329.70
2023-03-26T17:03:51.497Z,98332.98
2023-03-26T17:06:28.754Z,98331.17
2023-03-26T17:09:17.585Z,98331.01
2023-03-26T17:11:56.003Z,98332.27
2023-03-26T17:14:39.733Z,98330.84
2023-03-26T17:17:37.577Z,98332.21
2023-03-26T17:20:17.611Z,98335.21
2023-03-26T17:22:51.213Z,98337.82
2023-03-26T17:25:35.922Z,98346.30
2023-03-26T17:28:41.479Z,98353.44
2023-03-26T17:31:20.023Z,98365.27
2023-03-26T17:33:50.101Z,98361.23
2023-03-26T17:36:31.788Z,98359.70
2023-03-26T17:39:16.550Z,98359.13
2023-03-26T17:42:18.153Z,98356.13
2023-03-26T17:44:52.327Z,98351.15
2023-03-26T17:47:32.294Z,98349.25
2023-03-26T17:50:07.193Z,98352.23
2023-03-26T17:52:47.480Z,98346.80
2023-03-26T17:55:20.854Z,98343.11
2023-03-26T17:57:52.760Z,98343.07
2023-03-26T18:00:29.582Z,98349.41
2023-03-26T18:03:02.843Z,98359.55
2023-03-26T18:05:33.081Z,98360.27
2023-03-26T18:08:46.598Z,98369.27
2023-03-26T18:11:39.835Z,98376.16
2023-03-26T18:14:43.111Z,98376.77
2023-03-26T18:17:12.402Z,98380.55
2023-03-26T18:19:48.969Z,98382.63
2023-03-26T18:22:58.733Z,98380.63
2023-03-26T18:25:31.957Z,98376.61
2023-03-26T18:28:01.799Z,98376.98
2023-03-26T18:30:30.643Z,98382.04
2023-03-26T18:33:02.736Z,98383.40
2023-03-26T18:35:40.967Z,98379.55
2023-03-26T18:38:18.723Z,98384.78
2023-03-26T18:41:05.997Z,98386.81
2023-03-26T18:43:36.049Z,98382.67
2023-03-26T18:46:18.262Z,98379.52
2023-03-26T18:48:50.046Z,98380.69
2023-03-26T18:51:22.336Z,98381.11
2023-03-26T18:53:54.717Z,98375.60
2023-03-26T18:56:39.726Z,98379.55
2023-03-26T18:59:28.953Z,98379.98
2023-03-26T19:01:59.287Z,98381.13
2023-03-26T19:04:31.122Z,98377.65
2023-03-26T19:07:00.989Z,98378.05
2023-03-26T19:09:32.487Z,98376.28
2023-03-26T19:12:07.947Z,98372.43
2023-03-26T19:14:53.292Z,98369.71
2023-03-26T19:17:23.260Z,98363.13
2023-03-26T19:19:52.148Z,98358.00
2023-03-26T19:22:23.155Z,98353.63
2023-03-26T19:24:56.363Z,98351.34
2023-03-26T19:27:25.513Z,98351.90
2023-03-26T19:29:54.536Z,98351.59
2023-03-26T19:32:31.595Z,98343.35
2023-03-26T19:35:01.516Z,98341.66
2023-03-26T19:37:31.179Z,98336.66
2023-03-26T19:40:12.119Z,98334.20
2023-03-26T19:42:44.517Z,98333.61
2023-03-26T19:45:17.644Z,98332.06
2023-03-26T19:47:48.473Z,98334.59
2023-03-26T19:50:25.336Z,98331.25
2023-03-26T19:53:16.779Z,98329.42
2023-03-26T19:55:54.980Z,98326.02
2023-03-26T19:58:25.337Z,98325.70
2023-03-26T20:00:55.789Z,98318.41
2023-03-26T20:03:28.669Z,98314.47
2023-03-26T20:05:57.520Z,98313.49
2023-03-26T20:08:26.558Z,98313.44
2023-03-26T20:10:56.248Z,98313.18
2023-03-26T20:13:25.190Z,98309.30
2023-03-26T20:16:05.071Z,98303.30
2023-03-26T20:18:35.445Z,98294.02
2023-03-26T20:21:10.918Z,98291.53
2023-03-26T20:23:39.766Z,98289.16
2023-03-26T20:26:12.944Z,98285.46
2023-03-26T20:28:48.230Z,98287.95
2023-03-26T20:31:21.265Z,98282.80
2023-03-26T20:33:54.244Z,98271.09
2023-03-26T20:36:33.857Z,98260.08
2023-03-26T20:39:05.333Z,98259.73
2023-03-26T20:41:35.188Z,98251.95
2023-03-26T20:44:05.743Z,98248.66
2023-03-26T20:46:34.469Z,98244.17
2023-03-26T20:49:03.190Z,98243.16
2023-03-26T20:51:31.825Z,98244.28
2023-03-26T20:54:00.431Z,98246.15
2023-03-26T20:56:29.157Z,98252.30
2023-03-26T20:59:09.696Z,98251.70
2023-03-26T21:01:39.117Z,98250.21
2023-03-26T21:04:08.147Z,98246.77
2023-03-26T21:06:36.823Z,98244.98
2023-03-26T21:09:09.378Z,98243.77
2023-03-26T21:11:49.801Z,98245.23
2023-03-26T21:14:22.766Z,98241.25
2023-03-26T21:16:52.807Z,98240.19
2023-03-26T21:19:22.852Z,98238.11
2023-03-26T21:22:05.174Z,98235.88
2023-03-26T21:24:46.293Z,98233.23
2023-03-26T21:27:24.594Z,98231.02
2023-03-26T21:29:55.029Z,98229.02
2023-03-26T21:32:24.866Z,98232.39
2023-03-26T21:37:28.102Z,98224.42
2023-03-26T21:39:59.254Z,98219.13
2023-03-26T21:42:28.971Z,98214.83
2023-03-26T21:44:58.584Z,98210.70
2023-03-26T21:47:28.248Z,98211.02
2023-03-26T21:49:57.828Z,98206.76
2023-03-26T21:52:28.147Z,98208.20
2023-03-26T21:55:00.047Z,98207.03
2023-03-26T21:57:43.640Z,98209.23
2023-03-26T22:00:18.140Z,98217.35
2023-03-26T22:02:59.547Z,98223.02
2023-03-26T22:05:37.085Z,98227.81
2023-03-26T22:08:08.031Z,98230.19
2023-03-26T22:10:36.840Z,98233.48
2023-03-26T22:13:05.697Z,98234.52
2023-03-26T22:15:34.867Z,98234.77
2023-03-26T22:18:04.515Z,98233.37
2023-03-26T22:20:33.450Z,98238.61
2023-03-26T22:23:02.612Z,98240.44
2023-03-26T22:25:32.300Z,98237.50
2023-03-26T22:28:01.471Z,98232.35
2023-03-26T22:30:30.334Z,98232.77
2023-03-26T22:32:59.150Z,98225.84
2023-03-26T22:35:27.908Z,98222.16
2023-03-26T22:38:00.714Z,98223.74
2023-03-26T22:40:30.034Z,98220.17
2023-03-26T22:42:58.684Z,98225.72
2023-03-26T22:45:27.518Z,98226.45
2023-03-26T22:48:03.681Z,98224.00
2023-03-26T22:50:34.297Z,98226.44
2023-03-26T22:53:03.151Z,98226.86
2023-03-26T22:55:31.771Z,98225.80
2023-03-26T22:58:00.524Z,98225.96
2023-03-26T23:00:30.125Z,98225.48
2023-03-26T23:02:59.487Z,98225.89
2023-03-26T23:05:28.678Z,98222.94
2023-03-26T23:07:57.592Z,98223.16
2023-03-26T23:10:26.200Z,98223.08
2023-03-26T23:12:55.198Z,98222.15
2023-03-26T23:15:25.264Z,98223.46
2023-03-26T23:17:54.363Z,98218.38
2023-03-26T23:20:23.672Z,98217.78
2023-03-26T23:22:52.784Z,98219.33
2023-03-26T23:25:21.527Z,98219.03
2023-03-26T23:27:50.141Z,98216.01
2023-03-26T23:30:19.012Z,98216.67
2023-03-26T23:32:47.662Z,98215.59
2023-03-26T23:35:16.858Z,98210.71
2023-03-26T23:37:45.534Z,98209.91
2023-03-26T23:40:15.096Z,98208.88
2023-03-26T23:42:43.720Z,98205.94
2023-03-26T23:45:13.066Z,98207.86
2023-03-26T23:47:41.836Z,98206.83
2023-03-26T23:50:12.224Z,98204.46
2023-03-26T23:52:40.956Z,98203.08
2023-03-26T23:55:10.533Z,98202.02
2023-03-26T23:57:40.089Z,98205.03
